To NAV CANADA Home Page Login to a new session Search on AWWS site Disclaimer Vers la page française équivalente Tips FAQ What's new on the site To the Forecasts and Observations / NOTAM section To "File a Flight Plan" website Publications and other links Update of the User's profile FIC Telephone Numbers My Weather Data Folder Route Weather Data Regional Weather Data Local Weather Data To the Forecasts and Observations / NOTAM section
Request Generated 03/19/2019 at 23:03:23 UTC . Weather information available at that time is displayed.

METAR/TAF

BLUE RIVER/BC    (show WxCam)

METAR CYCP 192300Z 00000KT 15SM FEW300 FEW350 16/M07 A3016 RMK CI1CI1 SLP240 DENSITY ALT 2600FT=
METAR CYCP 192200Z VRB02KT 15SM FEW300 SCT350 14/M06 A3019 RMK CI1CI2 SLP248 DENSITY ALT 2400FT=
METAR CYCP 192100Z VRB02KT 15SM FEW280 SCT350 12/M05 A3022 RMK CI1CI2 SLP262=

CYCP - No TAF is issued for this station

Your time UTC time
Weather data provided by Environment Canada and NAV CANADA